Arenas Valley, New Mexico
Current Conditions -  °F | °C
As of 12:35 PM on Thursday 23 Oct 2014 (Local Time) from KSVC Reporting Station
Haze Haze  
Wind Chill: 22°   Ceiling: Unl
Heat Index: 22°   Visibility: 3mi
Dew Point:   Wind: 6mph
Humidity: 38%   Direction: 190°S
Pressure: 30.29"   Gusts: NA
Location:  32.79°N, 108.18°W
Report Text: KSVC 231835Z AUTO 19005KT 3SM HZ CLR 22/07 A3029 RMK AO2
Loading
Personal Weather Stations






























Interactive Weather Map
Tropical Storm Tracking
New forecast layout! Learn more

10-Day Weather Forecast

Advertisements
Track Severe Weather on mobile